Current Weather

Chicago O'Hare International

Chicago, Illinois (KORD)

Report from: Friday, July 12, 2024 5:51 PM CDT
Current time: Friday, July 12, 2024 6:40 PM CDT

Nearby weather – Weather history – Daily summaries
Weather forecast

Temperature28.9°C (84.0°F)
Heat index29.9°C (85.9°F)
Dew point17.8°C (64.0°F)
Winds 6 kts (3.1 m/s, 6.9 mph) East (80°)
Visibility10 mi. (16.1 km)
Clouds Few clouds 4,500 ft. (1,372 m)
Altimeter30.09 in.Hg (1019 mB)
Relative humidity51 %
Density altitude1,703 ft. (519 m)
Sea-level pressure101.8 kPa (1018 mB, 30.07 in.Hg)
Remarks Automated weather observing station with precipitation discriminator
Flight conditions Visual Meteorological Conditions
Raw dataKORD 122251Z 08006KT 10SM FEW045 29/18 A3009 RMK AO2 SLP184 T02890178
An unhandled exception has occurred. See browser dev tools for details. Reload 🗙